HTMP weather

Mpanda Airport
Mpanda, Rukwa Region, Tanzania

Public forecast

Using degrees Celsius for public forecast. Weather courtesy of forecast.io.

Current aviation weather report (METAR) for Mpanda Airport

Report is more than 6 hours old.

Retrieved 2019/09/27 04:00 UTC (17 days ago):

HTMP 270400Z 10002KT CAVOK 19/13 Q1021

Closest aviation forecast (TAF) to Mpanda Airport

Forecast is more than 12 hours old.

Closest forecast is Kigoma Airport, 122.1 nm (226.1 km) NW. Retrieved 2019/04/07 12:27 UTC (6 months ago):

TAF HTKA 071120Z 0712/0812 12013KT 9999 FEW026 FEW027CB BECMG 0714/0716 00000KT